sensor_id;sensor_type;location;lat;lon;timestamp;pressure;altitude;pressure_sealevel;temperature;humidity
11212;BME280;5663;50.864;12.096;2023-02-26T00:01:00;98944.41;;;1.76;65.91
11212;BME280;5663;50.864;12.096;2023-02-26T00:03:28;98946.97;;;1.75;65.87
11212;BME280;5663;50.864;12.096;2023-02-26T00:05:58;98943.59;;;1.74;66.03
11212;BME280;5663;50.864;12.096;2023-02-26T00:08:27;98948.66;;;1.77;66.11
11212;BME280;5663;50.864;12.096;2023-02-26T00:10:58;98958.91;;;1.77;66.03
11212;BME280;5663;50.864;12.096;2023-02-26T00:13:27;98957.22;;;1.76;66.09
11212;BME280;5663;50.864;12.096;2023-02-26T00:15:59;98971.78;;;1.74;65.87
11212;BME280;5663;50.864;12.096;2023-02-26T00:18:27;98957.28;;;1.73;66.20
11212;BME280;5663;50.864;12.096;2023-02-26T00:20:56;98955.59;;;1.72;66.20
11212;BME280;5663;50.864;12.096;2023-02-26T00:23:24;98918.44;;;1.53;66.27
11212;BME280;5663;50.864;12.096;2023-02-26T00:25:53;98962.25;;;1.79;66.46
11212;BME280;5663;50.864;12.096;2023-02-26T00:28:22;98962.25;;;1.79;66.28
11212;BME280;5663;50.864;12.096;2023-02-26T00:30:51;98968.22;;;1.81;66.32
11212;BME280;5663;50.864;12.096;2023-02-26T00:33:19;98955.66;;;1.69;66.84
11212;BME280;5663;50.864;12.096;2023-02-26T00:35:48;98969.88;;;1.82;66.40
11212;BME280;5663;50.864;12.096;2023-02-26T00:38:20;98975.84;;;1.83;66.54
11212;BME280;5663;50.864;12.096;2023-02-26T00:40:49;98943.81;;;1.63;66.87
11212;BME280;5663;50.864;12.096;2023-02-26T00:43:23;98956.38;;;1.76;66.95
11212;BME280;5663;50.864;12.096;2023-02-26T00:45:57;98978.41;;;1.84;67.05
11212;BME280;5663;50.864;12.096;2023-02-26T00:48:39;98977.56;;;1.82;67.06
11212;BME280;5663;50.864;12.096;2023-02-26T00:51:18;98975.84;;;1.83;66.94
11212;BME280;5663;50.864;12.096;2023-02-26T00:53:53;98976.78;;;1.79;66.95
11212;BME280;5663;50.864;12.096;2023-02-26T00:56:26;98974.22;;;1.80;66.96
11212;BME280;5663;50.864;12.096;2023-02-26T00:58:55;98975.97;;;1.78;67.30
11212;BME280;5663;50.864;12.096;2023-02-26T01:01:23;98972.50;;;1.79;67.09
11212;BME280;5663;50.864;12.096;2023-02-26T01:03:52;98975.91;;;1.81;67.01
11212;BME280;5663;50.864;12.096;2023-02-26T01:06:20;98981.03;;;1.81;67.21
11212;BME280;5663;50.864;12.096;2023-02-26T01:08:54;98984.47;;;1.80;67.43
11212;BME280;5663;50.864;12.096;2023-02-26T01:11:26;98976.03;;;1.75;67.44
11212;BME280;5663;50.864;12.096;2023-02-26T01:13:55;98983.81;;;1.70;67.73
11212;BME280;5663;50.864;12.096;2023-02-26T01:16:27;98975.25;;;1.71;68.00
11212;BME280;5663;50.864;12.096;2023-02-26T01:19:00;98976.09;;;1.72;68.02
11212;BME280;5663;50.864;12.096;2023-02-26T01:21:32;98968.53;;;1.66;67.84
11212;BME280;5663;50.864;12.096;2023-02-26T01:24:04;98978.59;;;1.75;68.02
11212;BME280;5663;50.864;12.096;2023-02-26T01:26:32;98982.84;;;1.76;68.03
11212;BME280;5663;50.864;12.096;2023-02-26T01:29:03;98986.22;;;1.78;68.12
11212;BME280;5663;50.864;12.096;2023-02-26T01:31:36;98980.25;;;1.78;67.89
11212;BME280;5663;50.864;12.096;2023-02-26T01:34:08;98987.97;;;1.76;68.17
11212;BME280;5663;50.864;12.096;2023-02-26T01:36:42;98982.00;;;1.76;68.48
11212;BME280;5663;50.864;12.096;2023-02-26T01:39:17;98989.72;;;1.74;68.63
11212;BME280;5663;50.864;12.096;2023-02-26T01:41:50;98933.22;;;1.40;68.76
11212;BME280;5663;50.864;12.096;2023-02-26T01:44:25;98984.59;;;1.74;68.72
11212;BME280;5663;50.864;12.096;2023-02-26T01:47:03;98985.44;;;1.75;69.11
11212;BME280;5663;50.864;12.096;2023-02-26T01:49:31;98977.84;;;1.70;68.73
11212;BME280;5663;50.864;12.096;2023-02-26T01:52:00;98989.78;;;1.71;68.96
11212;BME280;5663;50.864;12.096;2023-02-26T01:54:29;98986.41;;;1.69;69.16
11212;BME280;5663;50.864;12.096;2023-02-26T01:56:59;98969.63;;;1.56;69.05
11212;BME280;5663;50.864;12.096;2023-02-26T01:59:34;98989.88;;;1.68;69.23
11212;BME280;5663;50.864;12.096;2023-02-26T02:02:05;99000.13;;;1.66;69.59
11212;BME280;5663;50.864;12.096;2023-02-26T02:04:33;99004.34;;;1.69;69.42
11212;BME280;5663;50.864;12.096;2023-02-26T02:07:04;98993.44;;;1.61;69.54
11212;BME280;5663;50.864;12.096;2023-02-26T02:09:32;99001.06;;;1.64;69.59
11212;BME280;5663;50.864;12.096;2023-02-26T02:12:08;99009.59;;;1.63;69.83
11212;BME280;5663;50.864;12.096;2023-02-26T02:14:49;98996.72;;;1.66;69.87
11212;BME280;5663;50.864;12.096;2023-02-26T02:17:26;99002.75;;;1.63;69.66
11212;BME280;5663;50.864;12.096;2023-02-26T02:20:23;99003.63;;;1.64;69.68
11212;BME280;5663;50.864;12.096;2023-02-26T02:23:00;99007.03;;;1.63;69.39
11212;BME280;5663;50.864;12.096;2023-02-26T02:25:44;98983.50;;;1.45;69.70
11212;BME280;5663;50.864;12.096;2023-02-26T02:28:21;98996.16;;;1.52;69.55
11212;BME280;5663;50.864;12.096;2023-02-26T02:31:01;99011.41;;;1.58;69.67
11212;BME280;5663;50.864;12.096;2023-02-26T02:33:37;99009.06;;;1.47;69.84
11212;BME280;5663;50.864;12.096;2023-02-26T02:36:13;99016.75;;;1.47;69.87
11212;BME280;5663;50.864;12.096;2023-02-26T02:38:44;99014.28;;;1.42;69.84
11212;BME280;5663;50.864;12.096;2023-02-26T02:41:17;99014.44;;;1.35;70.06
11212;BME280;5663;50.864;12.096;2023-02-26T02:43:47;99021.19;;;1.39;70.03
11212;BME280;5663;50.864;12.096;2023-02-26T02:46:19;99008.66;;;1.25;70.13
11212;BME280;5663;50.864;12.096;2023-02-26T02:48:53;99027.97;;;1.41;70.09
11212;BME280;5663;50.864;12.096;2023-02-26T02:51:28;99030.53;;;1.41;70.01
11212;BME280;5663;50.864;12.096;2023-02-26T02:54:02;99038.22;;;1.41;70.29
11212;BME280;5663;50.864;12.096;2023-02-26T02:56:34;99036.47;;;1.43;69.89
11212;BME280;5663;50.864;12.096;2023-02-26T02:59:11;99006.16;;;1.22;70.33
11212;BME280;5663;50.864;12.096;2023-02-26T03:01:44;99042.50;;;1.41;70.40
11212;BME280;5663;50.864;12.096;2023-02-26T03:04:14;99024.78;;;1.30;70.32
11212;BME280;5663;50.864;12.096;2023-02-26T03:06:43;99051.88;;;1.42;70.34
11212;BME280;5663;50.864;12.096;2023-02-26T03:09:11;99061.25;;;1.43;70.30
11212;BME280;5663;50.864;12.096;2023-02-26T03:11:40;99055.28;;;1.42;70.43
11212;BME280;5663;50.864;12.096;2023-02-26T03:14:08;99065.47;;;1.45;70.35
11212;BME280;5663;50.864;12.096;2023-02-26T03:19:31;99071.38;;;1.49;70.49
11212;BME280;5663;50.864;12.096;2023-02-26T03:22:07;99073.84;;;1.54;70.38
11212;BME280;5663;50.864;12.096;2023-02-26T03:24:39;99076.50;;;1.47;70.31
11212;BME280;5663;50.864;12.096;2023-02-26T03:27:13;99086.91;;;1.41;70.30
11212;BME280;5663;50.864;12.096;2023-02-26T03:29:48;99073.34;;;1.35;70.45
11212;BME280;5663;50.864;12.096;2023-02-26T03:32:22;99089.56;;;1.35;70.57
11212;BME280;5663;50.864;12.096;2023-02-26T03:34:57;99081.97;;;1.31;70.94
11212;BME280;5663;50.864;12.096;2023-02-26T03:37:30;99094.69;;;1.35;70.89
11212;BME280;5663;50.864;12.096;2023-02-26T03:40:03;99091.41;;;1.27;70.98
11212;BME280;5663;50.864;12.096;2023-02-26T03:42:37;99095.56;;;1.34;71.06
11212;BME280;5663;50.864;12.096;2023-02-26T03:45:09;99108.31;;;1.37;70.87
11212;BME280;5663;50.864;12.096;2023-02-26T03:47:41;99111.75;;;1.36;70.95
11212;BME280;5663;50.864;12.096;2023-02-26T03:50:16;99115.38;;;1.23;70.99
11212;BME280;5663;50.864;12.096;2023-02-26T03:52:47;99118.78;;;1.25;71.22
11212;BME280;5663;50.864;12.096;2023-02-26T03:55:18;99124.78;;;1.22;71.42
11212;BME280;5663;50.864;12.096;2023-02-26T03:57:47;99125.53;;;1.29;71.17
11212;BME280;5663;50.864;12.096;2023-02-26T04:00:16;99091.78;;;1.06;70.92
11212;BME280;5663;50.864;12.096;2023-02-26T04:02:54;99132.41;;;1.27;70.92
11212;BME280;5663;50.864;12.096;2023-02-26T04:05:27;99145.25;;;1.26;71.20
11212;BME280;5663;50.864;12.096;2023-02-26T04:07:56;99151.31;;;1.20;71.25
11212;BME280;5663;50.864;12.096;2023-02-26T04:10:28;99158.13;;;1.21;71.42
11212;BME280;5663;50.864;12.096;2023-02-26T04:12:58;99145.28;;;1.24;71.48
11212;BME280;5663;50.864;12.096;2023-02-26T04:15:27;99151.25;;;1.23;71.23
11212;BME280;5663;50.864;12.096;2023-02-26T04:17:54;99155.59;;;1.18;71.38
11212;BME280;5663;50.864;12.096;2023-02-26T04:20:23;99165.03;;;1.16;71.38
11212;BME280;5663;50.864;12.096;2023-02-26T04:22:52;99168.56;;;1.09;71.59
11212;BME280;5663;50.864;12.096;2023-02-26T04:25:20;99179.59;;;1.12;71.58
11212;BME280;5663;50.864;12.096;2023-02-26T04:27:48;99184.69;;;1.14;71.63
11212;BME280;5663;50.864;12.096;2023-02-26T04:30:16;99179.56;;;1.14;71.42
11212;BME280;5663;50.864;12.096;2023-02-26T04:32:45;99184.66;;;1.17;71.46
11212;BME280;5663;50.864;12.096;2023-02-26T04:35:13;99188.94;;;1.15;71.49
11212;BME280;5663;50.864;12.096;2023-02-26T04:37:40;99200.91;;;1.14;71.51
11212;BME280;5663;50.864;12.096;2023-02-26T04:40:11;99204.38;;;1.10;71.64
11212;BME280;5663;50.864;12.096;2023-02-26T04:42:38;99194.97;;;1.11;71.51
11212;BME280;5663;50.864;12.096;2023-02-26T04:45:07;99197.53;;;1.12;71.49
11212;BME280;5663;50.864;12.096;2023-02-26T04:47:35;99203.50;;;1.13;71.56
11212;BME280;5663;50.864;12.096;2023-02-26T04:50:03;99199.97;;;1.20;71.46
11212;BME280;5663;50.864;12.096;2023-02-26T04:52:31;99218.75;;;1.19;71.34
11212;BME280;5663;50.864;12.096;2023-02-26T04:54:58;99214.53;;;1.15;71.43
11212;BME280;5663;50.864;12.096;2023-02-26T04:57:27;99217.97;;;1.14;71.67
11212;BME280;5663;50.864;12.096;2023-02-26T04:59:55;99218.97;;;1.05;71.71
11212;BME280;5663;50.864;12.096;2023-02-26T05:02:23;99186.22;;;0.70;71.73
11212;BME280;5663;50.864;12.096;2023-02-26T05:04:51;99228.50;;;0.95;71.85
11212;BME280;5663;50.864;12.096;2023-02-26T05:07:19;99230.25;;;0.93;72.13
11212;BME280;5663;50.864;12.096;2023-02-26T05:09:47;99234.41;;;0.99;72.06
11212;BME280;5663;50.864;12.096;2023-02-26T05:12:14;99233.56;;;0.98;71.97
11212;BME280;5663;50.864;12.096;2023-02-26T05:14:43;99222.53;;;0.96;71.90
11212;BME280;5663;50.864;12.096;2023-02-26T05:17:11;99224.28;;;0.93;71.63
11212;BME280;5663;50.864;12.096;2023-02-26T05:19:39;99246.19;;;1.12;71.36
11212;BME280;5663;50.864;12.096;2023-02-26T05:22:06;99251.34;;;1.09;71.38
11212;BME280;5663;50.864;12.096;2023-02-26T05:24:34;99263.31;;;1.09;71.68
11212;BME280;5663;50.864;12.096;2023-02-26T05:27:02;99265.03;;;1.07;71.69
11212;BME280;5663;50.864;12.096;2023-02-26T05:29:30;99247.28;;;0.96;71.65
11212;BME280;5663;50.864;12.096;2023-02-26T05:31:59;99269.28;;;1.08;71.48
11212;BME280;5663;50.864;12.096;2023-02-26T05:34:27;99246.47;;;0.92;71.69
11212;BME280;5663;50.864;12.096;2023-02-26T05:36:55;99276.91;;;1.11;71.37
11212;BME280;5663;50.864;12.096;2023-02-26T05:39:22;99277.78;;;1.10;71.55
11212;BME280;5663;50.864;12.096;2023-02-26T05:41:50;99286.44;;;1.03;71.74
11212;BME280;5663;50.864;12.096;2023-02-26T05:44:20;99283.00;;;1.04;71.60
11212;BME280;5663;50.864;12.096;2023-02-26T05:46:48;99283.84;;;1.06;71.58
11212;BME280;5663;50.864;12.096;2023-02-26T05:49:18;99293.28;;;1.01;71.75
11212;BME280;5663;50.864;12.096;2023-02-26T05:51:45;99289.94;;;0.95;72.10
11212;BME280;5663;50.864;12.096;2023-02-26T05:54:13;99295.91;;;0.96;71.74
11212;BME280;5663;50.864;12.096;2023-02-26T05:56:41;99298.41;;;1.01;71.68
11212;BME280;5663;50.864;12.096;2023-02-26T05:59:09;99306.91;;;1.03;71.60
11212;BME280;5663;50.864;12.096;2023-02-26T06:01:37;99315.44;;;1.05;71.88
11212;BME280;5663;50.864;12.096;2023-02-26T06:04:05;99316.19;;;1.11;71.60
11212;BME280;5663;50.864;12.096;2023-02-26T06:06:34;99327.28;;;1.12;71.54
11212;BME280;5663;50.864;12.096;2023-02-26T06:09:02;99329.81;;;1.13;71.59
11212;BME280;5663;50.864;12.096;2023-02-26T06:11:31;99318.00;;;1.03;71.16
11212;BME280;5663;50.864;12.096;2023-02-26T06:13:58;99322.28;;;1.03;71.12
11212;BME280;5663;50.864;12.096;2023-02-26T06:16:26;99341.81;;;1.10;71.60
11212;BME280;5663;50.864;12.096;2023-02-26T06:18:54;99351.22;;;1.08;71.37
11212;BME280;5663;50.864;12.096;2023-02-26T06:21:22;99357.25;;;1.05;71.54
11212;BME280;5663;50.864;12.096;2023-02-26T06:23:52;99353.00;;;1.03;71.76
11212;BME280;5663;50.864;12.096;2023-02-26T06:26:19;99331.03;;;0.83;71.75
11212;BME280;5663;50.864;12.096;2023-02-26T06:28:47;99364.09;;;1.03;71.88
11212;BME280;5663;50.864;12.096;2023-02-26T06:31:15;99366.56;;;1.08;71.84
11212;BME280;5663;50.864;12.096;2023-02-26T06:33:43;99383.63;;;1.12;71.75
11212;BME280;5663;50.864;12.096;2023-02-26T06:36:11;99387.00;;;1.14;71.69
11212;BME280;5663;50.864;12.096;2023-02-26T06:38:39;99390.41;;;1.14;71.66
11212;BME280;5663;50.864;12.096;2023-02-26T06:41:08;99391.25;;;1.15;71.70
11212;BME280;5663;50.864;12.096;2023-02-26T06:43:36;99407.38;;;1.23;71.50
11212;BME280;5663;50.864;12.096;2023-02-26T06:46:04;99403.22;;;1.14;71.66
11212;BME280;5663;50.864;12.096;2023-02-26T06:48:32;99383.81;;;0.96;71.64
11212;BME280;5663;50.864;12.096;2023-02-26T06:50:59;99407.59;;;1.03;71.92
11212;BME280;5663;50.864;12.096;2023-02-26T06:53:27;99409.25;;;1.10;71.77
11212;BME280;5663;50.864;12.096;2023-02-26T06:55:55;99419.47;;;1.12;71.67
11212;BME280;5663;50.864;12.096;2023-02-26T06:58:24;99415.97;;;1.19;71.72
11212;BME280;5663;50.864;12.096;2023-02-26T07:00:52;99427.03;;;1.19;71.53
11212;BME280;5663;50.864;12.096;2023-02-26T07:03:20;99427.91;;;1.20;71.58
11212;BME280;5663;50.864;12.096;2023-02-26T07:05:48;99430.34;;;1.29;71.55
11212;BME280;5663;50.864;12.096;2023-02-26T07:08:16;99424.31;;;1.33;71.62
11212;BME280;5663;50.864;12.096;2023-02-26T07:10:43;99437.78;;;1.47;71.52
11212;BME280;5663;50.864;12.096;2023-02-26T07:13:14;99446.28;;;1.53;71.24
11212;BME280;5663;50.864;12.096;2023-02-26T07:15:44;99444.47;;;1.61;71.17
11212;BME280;5663;50.864;12.096;2023-02-26T07:18:11;99453.78;;;1.66;70.79
11212;BME280;5663;50.864;12.096;2023-02-26T07:20:39;99456.38;;;1.65;71.02
11212;BME280;5663;50.864;12.096;2023-02-26T07:23:08;99467.44;;;1.67;70.99
11212;BME280;5663;50.864;12.096;2023-02-26T07:25:36;99467.53;;;1.61;70.95
11212;BME280;5663;50.864;12.096;2023-02-26T07:28:04;99480.50;;;1.48;71.12
11212;BME280;5663;50.864;12.096;2023-02-26T07:30:32;99479.81;;;1.34;71.04
11212;BME280;5663;50.864;12.096;2023-02-26T07:33:01;99482.34;;;1.37;71.34
11212;BME280;5663;50.864;12.096;2023-02-26T07:35:29;99488.25;;;1.42;71.34
11212;BME280;5663;50.864;12.096;2023-02-26T07:37:57;99479.00;;;1.32;71.35
11212;BME280;5663;50.864;12.096;2023-02-26T07:40:24;99493.25;;;1.52;71.37
11212;BME280;5663;50.864;12.096;2023-02-26T07:42:52;99500.88;;;1.58;70.95
11212;BME280;5663;50.864;12.096;2023-02-26T07:45:20;99510.19;;;1.65;70.99
11212;BME280;5663;50.864;12.096;2023-02-26T07:47:47;99509.16;;;1.78;70.67
11212;BME280;5663;50.864;12.096;2023-02-26T07:50:17;99507.38;;;1.85;70.49
11212;BME280;5663;50.864;12.096;2023-02-26T07:52:46;99501.41;;;1.83;69.86
11212;BME280;5663;50.864;12.096;2023-02-26T07:55:14;99521.84;;;1.89;70.09
11212;BME280;5663;50.864;12.096;2023-02-26T07:57:41;99525.25;;;1.89;70.05
11212;BME280;5663;50.864;12.096;2023-02-26T08:00:10;99515.88;;;1.88;70.12
11212;BME280;5663;50.864;12.096;2023-02-26T08:02:38;99539.72;;;1.96;69.96
11212;BME280;5663;50.864;12.096;2023-02-26T08:05:06;99541.50;;;1.90;70.02
11212;BME280;5663;50.864;12.096;2023-02-26T08:07:35;99538.03;;;1.94;69.96
11212;BME280;5663;50.864;12.096;2023-02-26T08:10:04;99543.00;;;2.05;69.93
11212;BME280;5663;50.864;12.096;2023-02-26T08:12:32;99547.13;;;2.16;69.75
11212;BME280;5663;50.864;12.096;2023-02-26T08:15:00;99552.97;;;2.26;69.38
11212;BME280;5663;50.864;12.096;2023-02-26T08:17:28;99558.03;;;2.32;69.39
11212;BME280;5663;50.864;12.096;2023-02-26T08:19:55;99563.09;;;2.35;68.89
11212;BME280;5663;50.864;12.096;2023-02-26T08:22:23;99565.53;;;2.44;69.30
11212;BME280;5663;50.864;12.096;2023-02-26T08:24:52;99564.63;;;2.49;68.86
11212;BME280;5663;50.864;12.096;2023-02-26T08:27:20;99562.97;;;2.44;68.32
11212;BME280;5663;50.864;12.096;2023-02-26T08:29:51;99567.19;;;2.49;68.60
11212;BME280;5663;50.864;12.096;2023-02-26T08:32:19;99564.50;;;2.55;68.51
11212;BME280;5663;50.864;12.096;2023-02-26T08:34:48;99563.56;;;2.63;68.15
11212;BME280;5663;50.864;12.096;2023-02-26T08:37:15;99552.47;;;2.60;68.03
11212;BME280;5663;50.864;12.096;2023-02-26T08:39:43;99576.97;;;2.81;67.28
11212;BME280;5663;50.864;12.096;2023-02-26T08:42:12;99585.78;;;2.63;67.16
11212;BME280;5663;50.864;12.096;2023-02-26T08:44:41;99591.03;;;2.57;67.70
11212;BME280;5663;50.864;12.096;2023-02-26T08:47:09;99593.72;;;2.47;67.77
11212;BME280;5663;50.864;12.096;2023-02-26T08:49:37;99593.63;;;2.54;67.92
11212;BME280;5663;50.864;12.096;2023-02-26T08:52:05;99603.75;;;2.63;67.53
11212;BME280;5663;50.864;12.096;2023-02-26T08:54:33;99613.03;;;2.73;67.63
11212;BME280;5663;50.864;12.096;2023-02-26T08:57:00;99614.63;;;2.79;66.86
11212;BME280;5663;50.864;12.096;2023-02-26T08:59:30;99614.72;;;2.74;66.82
11212;BME280;5663;50.864;12.096;2023-02-26T09:01:57;99622.53;;;2.68;66.91
11212;BME280;5663;50.864;12.096;2023-02-26T09:04:25;99630.25;;;2.65;66.55
11212;BME280;5663;50.864;12.096;2023-02-26T09:06:54;99617.31;;;2.71;66.82
11212;BME280;5663;50.864;12.096;2023-02-26T09:09:22;99628.16;;;2.90;66.90
11212;BME280;5663;50.864;12.096;2023-02-26T09:11:49;99627.16;;;2.99;66.94
11212;BME280;5663;50.864;12.096;2023-02-26T09:14:17;99630.41;;;3.11;66.77
11212;BME280;5663;50.864;12.096;2023-02-26T09:16:46;99635.56;;;3.10;66.05
11212;BME280;5663;50.864;12.096;2023-02-26T09:19:14;99645.00;;;3.09;65.78
11212;BME280;5663;50.864;12.096;2023-02-26T09:21:42;99642.34;;;3.14;66.17
11212;BME280;5663;50.864;12.096;2023-02-26T09:24:11;99645.63;;;3.22;65.60
11212;BME280;5663;50.864;12.096;2023-02-26T09:26:41;99649.94;;;3.21;65.60
11212;BME280;5663;50.864;12.096;2023-02-26T09:29:10;99648.13;;;3.28;65.61
11212;BME280;5663;50.864;12.096;2023-02-26T09:31:41;99656.50;;;3.38;65.60
11212;BME280;5663;50.864;12.096;2023-02-26T09:34:10;99650.53;;;3.37;65.60
11212;BME280;5663;50.864;12.096;2023-02-26T09:36:38;99662.34;;;3.48;64.83
11212;BME280;5663;50.864;12.096;2023-02-26T09:39:06;99662.22;;;3.54;64.94
11212;BME280;5663;50.864;12.096;2023-02-26T09:41:37;99667.94;;;3.69;64.51
11212;BME280;5663;50.864;12.096;2023-02-26T09:44:16;99665.19;;;3.79;64.86
11212;BME280;5663;50.864;12.096;2023-02-26T09:46:53;99629.50;;;3.63;64.21
11212;BME280;5663;50.864;12.096;2023-02-26T09:49:33;99678.63;;;3.94;64.19
11212;BME280;5663;50.864;12.096;2023-02-26T09:52:12;99673.38;;;4.01;64.03
11212;BME280;5663;50.864;12.096;2023-02-26T09:54:46;99607.34;;;3.55;64.22
11212;BME280;5663;50.864;12.096;2023-02-26T09:57:21;99694.47;;;4.18;63.93
11212;BME280;5663;50.864;12.096;2023-02-26T09:59:53;99691.84;;;4.21;63.21
11212;BME280;5663;50.864;12.096;2023-02-26T10:02:26;99693.41;;;4.28;63.71
11212;BME280;5663;50.864;12.096;2023-02-26T10:05:08;99693.38;;;4.31;63.65
11212;BME280;5663;50.864;12.096;2023-02-26T10:07:45;99692.50;;;4.31;62.64
11212;BME280;5663;50.864;12.096;2023-02-26T10:10:21;99703.38;;;4.45;62.94
11212;BME280;5663;50.864;12.096;2023-02-26T10:12:52;99708.38;;;4.53;62.20
11212;BME280;5663;50.864;12.096;2023-02-26T10:15:22;99713.56;;;4.51;62.61
11212;BME280;5663;50.864;12.096;2023-02-26T10:18:03;99707.53;;;4.52;62.75
11212;BME280;5663;50.864;12.096;2023-02-26T10:20:38;99720.28;;;4.57;62.40
11212;BME280;5663;50.864;12.096;2023-02-26T10:23:17;99732.28;;;4.58;61.83
11212;BME280;5663;50.864;12.096;2023-02-26T10:25:50;99713.72;;;4.43;61.38
11212;BME280;5663;50.864;12.096;2023-02-26T10:28:36;99730.06;;;4.41;61.47
11212;BME280;5663;50.864;12.096;2023-02-26T10:31:12;99732.69;;;4.39;61.28
11212;BME280;5663;50.864;12.096;2023-02-26T10:33:48;99739.75;;;4.28;61.05
11212;BME280;5663;50.864;12.096;2023-02-26T10:36:23;99740.09;;;4.10;61.56
11212;BME280;5663;50.864;12.096;2023-02-26T10:38:57;99739.84;;;4.22;62.26
11212;BME280;5663;50.864;12.096;2023-02-26T10:41:30;99734.66;;;4.25;61.43
11212;BME280;5663;50.864;12.096;2023-02-26T10:44:08;99740.41;;;4.39;60.90
11212;BME280;5663;50.864;12.096;2023-02-26T10:46:45;99737.03;;;4.34;61.23
11212;BME280;5663;50.864;12.096;2023-02-26T10:49:33;99739.16;;;4.59;60.82
11212;BME280;5663;50.864;12.096;2023-02-26T10:52:11;99732.16;;;4.64;60.65
11212;BME280;5663;50.864;12.096;2023-02-26T10:54:46;99732.03;;;4.70;60.88
11212;BME280;5663;50.864;12.096;2023-02-26T10:57:20;99734.47;;;4.76;59.94
11212;BME280;5663;50.864;12.096;2023-02-26T10:59:49;99735.16;;;4.84;59.89
11212;BME280;5663;50.864;12.096;2023-02-26T11:02:36;99754.78;;;4.90;59.77
11212;BME280;5663;50.864;12.096;2023-02-26T11:05:09;99752.88;;;4.98;59.31
11212;BME280;5663;50.864;12.096;2023-02-26T11:07:41;99735.03;;;4.90;59.07
11212;BME280;5663;50.864;12.096;2023-02-26T11:10:16;99749.47;;;4.98;58.36
11212;BME280;5663;50.864;12.096;2023-02-26T11:12:45;99760.78;;;4.92;58.12
11212;BME280;5663;50.864;12.096;2023-02-26T11:15:17;99749.69;;;4.88;58.24
11212;BME280;5663;50.864;12.096;2023-02-26T11:17:47;99755.63;;;4.90;58.31
11212;BME280;5663;50.864;12.096;2023-02-26T11:20:18;99759.03;;;4.92;57.94
11212;BME280;5663;50.864;12.096;2023-02-26T11:22:54;99755.72;;;4.87;58.14
11212;BME280;5663;50.864;12.096;2023-02-26T11:25:24;99750.78;;;4.77;57.36
11212;BME280;5663;50.864;12.096;2023-02-26T11:27:59;99755.91;;;4.78;57.49
11212;BME280;5663;50.864;12.096;2023-02-26T11:30:30;99752.56;;;4.73;57.68
11212;BME280;5663;50.864;12.096;2023-02-26T11:33:05;99761.97;;;4.76;57.16
11212;BME280;5663;50.864;12.096;2023-02-26T11:35:34;99763.47;;;4.86;57.44
11212;BME280;5663;50.864;12.096;2023-02-26T11:38:03;99757.25;;;4.94;57.40
11212;BME280;5663;50.864;12.096;2023-02-26T11:40:36;99755.25;;;5.09;56.95
11212;BME280;5663;50.864;12.096;2023-02-26T11:43:07;99757.38;;;5.29;56.79
11212;BME280;5663;50.864;12.096;2023-02-26T11:45:39;99753.66;;;5.40;55.72
11212;BME280;5663;50.864;12.096;2023-02-26T11:48:12;99759.03;;;5.31;55.45
11212;BME280;5663;50.864;12.096;2023-02-26T11:50:43;99757.44;;;5.26;55.99
11212;BME280;5663;50.864;12.096;2023-02-26T11:53:19;99758.50;;;5.17;55.26
11212;BME280;5663;50.864;12.096;2023-02-26T11:55:52;99734.00;;;4.98;55.87
11212;BME280;5663;50.864;12.096;2023-02-26T11:58:21;99757.72;;;5.13;55.93
11212;BME280;5663;50.864;12.096;2023-02-26T12:00:51;99758.28;;;5.26;56.02
11212;BME280;5663;50.864;12.096;2023-02-26T12:03:22;99766.56;;;5.40;55.54
11212;BME280;5663;50.864;12.096;2023-02-26T12:05:50;99762.16;;;5.44;55.73
11212;BME280;5663;50.864;12.096;2023-02-26T12:08:24;99771.34;;;5.56;55.10
11212;BME280;5663;50.864;12.096;2023-02-26T12:11:05;99769.56;;;5.58;55.06
11212;BME280;5663;50.864;12.096;2023-02-26T12:13:40;99766.91;;;5.61;54.95
11212;BME280;5663;50.864;12.096;2023-02-26T12:16:17;99765.03;;;5.67;55.05
11212;BME280;5663;50.864;12.096;2023-02-26T12:18:55;99768.03;;;5.85;54.82
11212;BME280;5663;50.864;12.096;2023-02-26T12:21:43;99770.41;;;5.96;54.15
11212;BME280;5663;50.864;12.096;2023-02-26T12:24:36;99773.03;;;5.92;54.23
11212;BME280;5663;50.864;12.096;2023-02-26T12:27:15;99765.22;;;5.96;53.90
11212;BME280;5663;50.864;12.096;2023-02-26T12:29:53;99767.75;;;5.99;53.97
11212;BME280;5663;50.864;12.096;2023-02-26T12:35:37;99769.38;;;5.65;52.76
11212;BME280;5663;50.864;12.096;2023-02-26T12:38:24;99771.91;;;5.68;53.29
11212;BME280;5663;50.864;12.096;2023-02-26T12:43:49;99772.66;;;5.72;54.11
11212;BME280;5663;50.864;12.096;2023-02-26T12:46:28;99784.44;;;5.82;52.90
11212;BME280;5663;50.864;12.096;2023-02-26T12:49:10;99781.69;;;5.90;52.88
11212;BME280;5663;50.864;12.096;2023-02-26T12:51:55;99754.59;;;5.72;53.15
11212;BME280;5663;50.864;12.096;2023-02-26T12:54:40;99780.91;;;5.86;52.96
11212;BME280;5663;50.864;12.096;2023-02-26T12:57:37;99779.06;;;5.91;52.89
11212;BME280;5663;50.864;12.096;2023-02-26T13:00:25;99785.88;;;5.96;52.11
11212;BME280;5663;50.864;12.096;2023-02-26T13:06:40;99778.56;;;5.41;51.85
11212;BME280;5663;50.864;12.096;2023-02-26T13:09:22;99789.31;;;5.23;52.98
11212;BME280;5663;50.864;12.096;2023-02-26T13:12:02;99797.13;;;5.18;52.68
11212;BME280;5663;50.864;12.096;2023-02-26T13:14:47;99785.50;;;5.01;52.68
11212;BME280;5663;50.864;12.096;2023-02-26T13:17:23;99795.06;;;4.96;52.94
11212;BME280;5663;50.864;12.096;2023-02-26T13:19:55;99805.63;;;4.83;52.53
11212;BME280;5663;50.864;12.096;2023-02-26T13:22:27;99798.84;;;4.79;52.34
11212;BME280;5663;50.864;12.096;2023-02-26T13:25:00;99797.13;;;4.78;52.60
11212;BME280;5663;50.864;12.096;2023-02-26T13:27:30;99734.59;;;4.28;52.27
11212;BME280;5663;50.864;12.096;2023-02-26T13:30:20;99799.53;;;4.42;52.25
11212;BME280;5663;50.864;12.096;2023-02-26T13:32:52;99799.66;;;4.36;52.36
11212;BME280;5663;50.864;12.096;2023-02-26T13:35:25;99796.41;;;4.28;53.29
11212;BME280;5663;50.864;12.096;2023-02-26T13:37:56;99789.69;;;4.18;53.43
11212;BME280;5663;50.864;12.096;2023-02-26T13:40:42;99801.59;;;4.25;54.20
11212;BME280;5663;50.864;12.096;2023-02-26T13:43:21;99793.44;;;4.47;53.77
11212;BME280;5663;50.864;12.096;2023-02-26T13:45:59;99796.66;;;4.59;53.92